Myra Eckstein — WDF9473 — position and weather

sailwx.info

Track history (hours):
 
Tides and Currents Weather Stations Pressure Air Temp Water Temp Dewpoint Dewpoint Depression Visibility Wind Speed Wind Dir Waves Ship Positions

Myra Eckstein

More information available from US FCC via Universal Licensing System and Coast Guard Vessel Documentation Center.

Last reported at 2014-Aug-11 11:34 UTC. Time now 2014-Aug-21 18:00 UTC.
Position N 30°07' W 091°02'.
Warning: this ship's position is 10 days out of date.

Length 47 m; draft 3.5 m.

Type: Towing. MMSI: 367505510.

Date/timePositionNaut miles runAvg speedWind from/ knotsBaromVisibWave heightAir tempDewpointWater temp
2014-Aug-11 11:34N 30°07' W 091°02'3 3.3
2014-Aug-11 10:31N 30°06' W 090°58'0 0.0
2014-Aug-11 09:33N 30°06' W 090°58'0 0.0
2014-Aug-11 08:33N 30°06' W 090°58'0 0.0
2014-Aug-11 06:33N 30°06' W 090°58'4 0.3
2014-Aug-10 19:33N 30°04' W 090°54'0 0.0
2014-Aug-10 13:08N 30°04' W 090°54'3 4.3
2014-Aug-10 12:32N 30°04' W 090°51'5 5.3
2014-Aug-10 11:33N 29°59' W 090°49'5 5.4
2014-Aug-10 10:34N 30°01' W 090°44'13 0.5
2014-Aug-09 06:26N 30°03' W 090°29'8 0.2
2014-Aug-07 08:31N 30°03' W 090°38'0 0.0
2014-Aug-07 07:29N 30°03' W 090°38'17 0.7
2014-Aug-06 06:03N 30°08' W 090°57'9 3.3
2014-Aug-06 03:17N 30°13' W 091°06'  
Track history (hours):
 
Tides and Currents Weather Stations Pressure Air Temp Water Temp Dewpoint Dewpoint Depression Visibility Wind Speed Wind Dir Waves Ship Positions

Myra Eckstein

More information available from US FCC via Universal Licensing System and Coast Guard Vessel Documentation Center.

Last reported at 2014-Aug-11 11:34 UTC. Time now 2014-Aug-21 18:00 UTC.
Position N 30°07' W 091°02'.
Warning: this ship's position is 10 days out of date.

Length 47 m; draft 3.5 m.

Type: Towing. MMSI: 367505510.

Date/timePositionNaut miles runAvg speedWind from/ knotsBaromVisibWave heightAir tempDewpointWater temp
2014-Aug-11 11:34N 30°07' W 091°02'3 3.3
2014-Aug-11 10:31N 30°06' W 090°58'0 0.0
2014-Aug-11 09:33N 30°06' W 090°58'0 0.0
2014-Aug-11 08:33N 30°06' W 090°58'0 0.0
2014-Aug-11 06:33N 30°06' W 090°58'4 0.3
2014-Aug-10 19:33N 30°04' W 090°54'0 0.0
2014-Aug-10 13:08N 30°04' W 090°54'3 4.3
2014-Aug-10 12:32N 30°04' W 090°51'5 5.3
2014-Aug-10 11:33N 29°59' W 090°49'5 5.4
2014-Aug-10 10:34N 30°01' W 090°44'13 0.5
2014-Aug-09 06:26N 30°03' W 090°29'8 0.2
2014-Aug-07 08:31N 30°03' W 090°38'0 0.0
2014-Aug-07 07:29N 30°03' W 090°38'17 0.7
2014-Aug-06 06:03N 30°08' W 090°57'9 3.3
2014-Aug-06 03:17N 30°13' W 091°06'  

Dump ship's entire track history